createdAt,value
2018-04-26T00:00:45.201Z,1018.37
2018-04-26T00:01:44.380Z,1018.31
2018-04-26T00:02:43.859Z,1018.25
2018-04-26T00:03:43.815Z,1018.25
2018-04-26T00:04:44.375Z,1018.23
2018-04-26T00:05:44.717Z,1018.14
2018-04-26T00:06:44.186Z,1018.23
2018-04-26T00:07:43.885Z,1018.22
2018-04-26T00:08:43.972Z,1018.24
2018-04-26T00:09:43.998Z,1018.32
2018-04-26T00:10:43.910Z,1018.32
2018-04-26T00:11:44.527Z,1018.36
2018-04-26T00:12:43.967Z,1018.34
2018-04-26T00:13:43.845Z,1018.37
2018-04-26T00:14:44.253Z,1018.35
2018-04-26T00:15:44.020Z,1018.35
2018-04-26T00:16:44.150Z,1018.36
2018-04-26T00:17:43.813Z,1018.4
2018-04-26T00:18:44.268Z,1018.39
2018-04-26T00:19:43.828Z,1018.42
2018-04-26T00:20:44.175Z,1018.36
2018-04-26T00:21:43.808Z,1018.38
2018-04-26T00:22:44.013Z,1018.35
2018-04-26T00:23:44.013Z,1018.37
2018-04-26T00:24:44.826Z,1018.39
2018-04-26T00:25:43.968Z,1018.37
2018-04-26T00:26:43.981Z,1018.37
2018-04-26T00:27:44.088Z,1018.34
2018-04-26T00:28:44.340Z,1018.34
2018-04-26T00:29:43.900Z,1018.37
2018-04-26T00:30:43.859Z,1018.38
2018-04-26T00:31:43.868Z,1018.38
2018-04-26T00:32:44.365Z,1018.36
2018-04-26T00:33:44.579Z,1018.4
2018-04-26T00:34:43.812Z,1018.42
2018-04-26T00:35:44.230Z,1018.33
2018-04-26T00:36:43.871Z,1018.32
2018-04-26T00:37:43.865Z,1018.27
2018-04-26T00:38:44.408Z,1018.25
2018-04-26T00:39:43.885Z,1018.29
2018-04-26T00:40:43.856Z,1018.28
2018-04-26T00:41:45.142Z,1018.27
2018-04-26T00:42:45.559Z,1018.32
2018-04-26T00:43:44.071Z,1018.39
2018-04-26T00:44:43.910Z,1018.39
2018-04-26T00:45:44.035Z,1018.41
2018-04-26T00:46:46.470Z,1018.47
2018-04-26T00:47:45.801Z,1018.45
2018-04-26T00:48:43.919Z,1018.44
2018-04-26T00:49:44.075Z,1018.47
2018-04-26T00:50:43.829Z,1018.45
2018-04-26T00:51:44.500Z,1018.48
2018-04-26T00:52:45.041Z,1018.5
2018-04-26T00:53:44.302Z,1018.49
2018-04-26T00:54:44.080Z,1018.5
2018-04-26T00:55:43.888Z,1018.44
2018-04-26T00:56:44.220Z,1018.38
2018-04-26T00:57:44.017Z,1018.39
2018-04-26T00:58:44.441Z,1018.39
2018-04-26T00:59:44.650Z,1018.38
2018-04-26T01:00:43.990Z,1018.4
2018-04-26T01:01:44.685Z,1018.4
2018-04-26T01:02:43.851Z,1018.39
2018-04-26T01:03:45.322Z,1018.41
2018-04-26T01:04:43.847Z,1018.47
2018-04-26T01:05:44.488Z,1018.48
2018-04-26T01:06:43.841Z,1018.53
2018-04-26T01:07:44.078Z,1018.55
2018-04-26T01:08:44.403Z,1018.59
2018-04-26T01:09:43.859Z,1018.63
2018-04-26T01:10:43.892Z,1018.67
2018-04-26T01:11:50.281Z,1018.65
2018-04-26T01:12:44.838Z,1018.72
2018-04-26T01:13:43.927Z,1018.71
2018-04-26T01:14:44.044Z,1018.76
2018-04-26T01:15:43.887Z,1018.76
2018-04-26T01:16:43.925Z,1018.75
2018-04-26T01:17:44.024Z,1018.74
2018-04-26T01:18:43.978Z,1018.74
2018-04-26T01:19:44.049Z,1018.69
2018-04-26T01:20:44.128Z,1018.68
2018-04-26T01:21:44.191Z,1018.66
2018-04-26T01:22:44.295Z,1018.61
2018-04-26T01:23:44.609Z,1018.62
2018-04-26T01:24:44.517Z,1018.59
2018-04-26T01:25:43.966Z,1018.62
2018-04-26T01:26:43.914Z,1018.65
2018-04-26T01:27:44.011Z,1018.67
2018-04-26T01:28:44.270Z,1018.66
2018-04-26T01:30:02.009Z,1018.63
2018-04-26T01:30:43.878Z,1018.67
2018-04-26T01:31:44.664Z,1018.69
2018-04-26T01:32:44.751Z,1018.78
2018-04-26T01:33:44.673Z,1018.75
2018-04-26T01:34:44.991Z,1018.75
2018-04-26T01:35:46.951Z,1018.72
2018-04-26T01:36:43.865Z,1018.75
2018-04-26T01:37:43.888Z,1018.79
2018-04-26T01:38:51.876Z,1018.82
2018-04-26T01:39:45.231Z,1018.84
2018-04-26T01:40:46.084Z,1018.84
2018-04-26T01:41:43.906Z,1018.87
2018-04-26T01:42:43.960Z,1018.89
2018-04-26T01:43:44.641Z,1018.91
2018-04-26T01:44:44.327Z,1018.9
2018-04-26T01:45:45.067Z,1018.9
2018-04-26T01:46:44.667Z,1018.87
2018-04-26T01:47:43.959Z,1018.88
2018-04-26T01:48:43.838Z,1018.88
2018-04-26T01:49:44.019Z,1018.9
2018-04-26T01:50:45.628Z,1018.95
2018-04-26T01:51:44.184Z,1018.94
2018-04-26T01:52:44.011Z,1018.95
2018-04-26T01:53:44.250Z,1018.92
2018-04-26T01:54:44.515Z,1018.9
2018-04-26T01:55:45.470Z,1018.89
2018-04-26T01:56:43.909Z,1018.88
2018-04-26T01:57:43.870Z,1018.87
2018-04-26T01:58:44.195Z,1018.92
2018-04-26T01:59:44.443Z,1018.89
2018-04-26T02:00:45.191Z,1018.94
2018-04-26T02:01:47.015Z,1018.95
2018-04-26T02:02:44.065Z,1018.98
2018-04-26T02:03:44.275Z,1018.91
2018-04-26T02:04:44.378Z,1018.91
2018-04-26T02:05:44.814Z,1018.94
2018-04-26T02:06:47.382Z,1018.96
2018-04-26T02:07:43.882Z,1018.94
2018-04-26T02:08:43.905Z,1018.96
2018-04-26T02:09:43.932Z,1018.93
2018-04-26T02:10:45.955Z,1018.96
2018-04-26T02:11:45.344Z,1018.96
2018-04-26T02:12:47.257Z,1018.92
2018-04-26T02:13:44.080Z,1018.96
2018-04-26T02:14:44.261Z,1018.96
2018-04-26T02:15:45.041Z,1018.98
2018-04-26T02:16:44.880Z,1018.96
2018-04-26T02:17:43.881Z,1018.93
2018-04-26T02:18:44.022Z,1018.97
2018-04-26T02:19:45.302Z,1018.96
2018-04-26T02:20:44.067Z,1018.94
2018-04-26T02:21:43.919Z,1018.96
2018-04-26T02:22:43.915Z,1018.95
2018-04-26T02:23:44.259Z,1018.98
2018-04-26T02:24:44.926Z,1019
2018-04-26T02:25:44.141Z,1018.98
2018-04-26T02:26:43.912Z,1018.99
2018-04-26T02:27:44.053Z,1019.03
2018-04-26T02:28:44.348Z,1018.97
2018-04-26T02:29:44.551Z,1018.98
2018-04-26T02:30:44.043Z,1019.02
2018-04-26T02:31:44.109Z,1019.01
2018-04-26T02:32:44.218Z,1018.97
2018-04-26T02:33:44.636Z,1018.94
2018-04-26T02:34:46.941Z,1018.92
2018-04-26T02:35:44.284Z,1018.9
2018-04-26T02:36:44.147Z,1018.9
2018-04-26T02:37:44.303Z,1018.98
2018-04-26T02:38:44.510Z,1019
2018-04-26T02:39:45.746Z,1018.95
2018-04-26T02:40:44.222Z,1018.99
2018-04-26T02:41:44.277Z,1018.99
2018-04-26T02:42:44.639Z,1019.07
2018-04-26T02:43:44.548Z,1019.05
2018-04-26T02:44:44.371Z,1019.08
2018-04-26T02:45:57.486Z,1019.09
2018-04-26T02:46:43.915Z,1019.11
2018-04-26T02:47:44.083Z,1019.08
2018-04-26T02:48:44.025Z,1019.12
2018-04-26T02:49:45.097Z,1019.14
2018-04-26T02:50:44.296Z,1019.09
2018-04-26T02:51:44.035Z,1019.12
2018-04-26T02:52:43.982Z,1019.17
2018-04-26T02:53:44.515Z,1019.15
2018-04-26T02:54:44.418Z,1019.13
2018-04-26T02:55:44.729Z,1019.09
2018-04-26T02:56:44.872Z,1019.13
2018-04-26T02:57:44.527Z,1019.18
2018-04-26T02:58:44.404Z,1019.19
2018-04-26T02:59:44.210Z,1019.18
2018-04-26T03:00:46.091Z,1019.18
2018-04-26T03:01:44.266Z,1019.19
2018-04-26T03:02:44.386Z,1019.19
2018-04-26T03:03:44.472Z,1019.22
2018-04-26T03:04:45.408Z,1019.22
2018-04-26T03:05:44.236Z,1019.17
2018-04-26T03:06:44.036Z,1019.17
2018-04-26T03:07:44.399Z,1019.15
2018-04-26T03:08:45.329Z,1019.1
2018-04-26T03:09:44.730Z,1019.15
2018-04-26T03:10:46.063Z,1019.12
2018-04-26T03:11:43.951Z,1019.14
2018-04-26T03:12:44.487Z,1019.12
2018-04-26T03:13:44.882Z,1019.16
2018-04-26T03:14:44.552Z,1019.16
2018-04-26T03:15:43.939Z,1019.22
2018-04-26T03:16:44.463Z,1019.27
2018-04-26T03:17:44.007Z,1019.3
2018-04-26T03:18:44.682Z,1019.35
2018-04-26T03:19:44.786Z,1019.37
2018-04-26T03:20:44.523Z,1019.4
2018-04-26T03:21:44.006Z,1019.39
2018-04-26T03:22:44.010Z,1019.46
2018-04-26T03:23:45.944Z,1019.49
2018-04-26T03:24:44.365Z,1019.49
2018-04-26T03:25:43.928Z,1019.44
2018-04-26T03:26:44.033Z,1019.43
2018-04-26T03:27:44.036Z,1019.45
2018-04-26T03:28:44.439Z,1019.46
2018-04-26T03:29:43.978Z,1019.47
2018-04-26T03:30:44.662Z,1019.41
2018-04-26T03:31:46.419Z,1019.42
2018-04-26T03:32:44.017Z,1019.42
2018-04-26T03:33:43.912Z,1019.45
2018-04-26T03:34:44.790Z,1019.49
2018-04-26T03:35:44.488Z,1019.5
2018-04-26T03:36:44.449Z,1019.51
2018-04-26T03:37:45.330Z,1019.55
2018-04-26T03:38:44.402Z,1019.55
2018-04-26T03:39:44.219Z,1019.49
2018-04-26T03:40:44.005Z,1019.51
2018-04-26T03:41:44.939Z,1019.49
2018-04-26T03:42:44.440Z,1019.57
2018-04-26T03:43:44.060Z,1019.51
2018-04-26T03:44:44.007Z,1019.56
2018-04-26T03:45:44.454Z,1019.54
2018-04-26T03:46:44.465Z,1019.56
2018-04-26T03:47:44.882Z,1019.58
2018-04-26T03:48:44.374Z,1019.59
2018-04-26T03:49:44.013Z,1019.62
2018-04-26T03:50:44.184Z,1019.67
2018-04-26T03:51:44.187Z,1019.71
2018-04-26T03:52:44.597Z,1019.7
2018-04-26T03:53:45.436Z,1019.69
2018-04-26T03:54:44.075Z,1019.73
2018-04-26T03:55:44.035Z,1019.73
2018-04-26T03:56:44.259Z,1019.69
2018-04-26T03:57:44.535Z,1019.72
2018-04-26T03:58:44.198Z,1019.7
2018-04-26T03:59:44.378Z,1019.7
2018-04-26T04:00:44.352Z,1019.67
2018-04-26T04:01:44.467Z,1019.68
2018-04-26T04:03:05.055Z,1019.71
2018-04-26T04:03:48.604Z,1019.69
2018-04-26T04:04:44.495Z,1019.73
2018-04-26T04:05:44.284Z,1019.77
2018-04-26T04:06:44.231Z,1019.79
2018-04-26T04:07:44.508Z,1019.82
2018-04-26T04:08:44.122Z,1019.8
2018-04-26T04:09:44.088Z,1019.78
2018-04-26T04:10:44.157Z,1019.81
2018-04-26T04:11:45.764Z,1019.83
2018-04-26T04:12:43.939Z,1019.86
2018-04-26T04:13:46.424Z,1019.88
2018-04-26T04:14:53.881Z,1019.88
2018-04-26T04:15:44.199Z,1019.89
2018-04-26T04:16:44.001Z,1019.89
2018-04-26T04:17:44.700Z,1019.9
2018-04-26T04:18:44.585Z,1019.87
2018-04-26T04:19:46.367Z,1019.9
2018-04-26T04:20:43.957Z,1019.91
2018-04-26T04:22:06.381Z,1019.89
2018-04-26T04:22:44.803Z,1019.9
2018-04-26T04:23:44.110Z,1019.92
2018-04-26T04:24:44.002Z,1019.93
2018-04-26T04:25:44.280Z,1019.92
2018-04-26T04:26:44.063Z,1019.89
2018-04-26T04:27:44.145Z,1019.9
2018-04-26T04:28:44.549Z,1019.83
2018-04-26T04:29:46.706Z,1019.86
2018-04-26T04:30:44.354Z,1019.85
2018-04-26T04:31:44.577Z,1019.87
2018-04-26T04:32:44.876Z,1019.9
2018-04-26T04:33:43.970Z,1019.91
2018-04-26T04:34:44.210Z,1019.95
2018-04-26T04:35:44.384Z,1019.93
2018-04-26T04:36:44.053Z,1019.96
2018-04-26T04:37:45.521Z,1019.95
2018-04-26T04:38:43.915Z,1019.96
2018-04-26T04:39:44.016Z,1019.98
2018-04-26T04:40:44.435Z,1020.03
2018-04-26T04:41:44.530Z,1020.05
2018-04-26T04:42:45.595Z,1020.02
2018-04-26T04:43:45.775Z,1020.03
2018-04-26T04:44:43.946Z,1020.08
2018-04-26T04:45:44.865Z,1020.06
2018-04-26T04:46:44.095Z,1020.09
2018-04-26T04:48:02.309Z,1020.12
2018-04-26T04:48:45.095Z,1020.11
2018-04-26T04:49:49.808Z,1020.11
2018-04-26T04:50:44.494Z,1020.11
2018-04-26T04:51:45.423Z,1020.15
2018-04-26T04:52:47.167Z,1020.14
2018-04-26T04:53:45.259Z,1020.13
2018-04-26T04:54:44.056Z,1020.11
2018-04-26T04:55:44.145Z,1020.15
2018-04-26T04:56:44.012Z,1020.13
2018-04-26T04:57:44.334Z,1020.19
2018-04-26T04:58:48.475Z,1020.19
2018-04-26T04:59:44.669Z,1020.23
2018-04-26T05:00:44.190Z,1020.25
2018-04-26T05:01:44.364Z,1020.29
2018-04-26T05:02:44.776Z,1020.24
2018-04-26T05:03:44.161Z,1020.26
2018-04-26T05:04:45.505Z,1020.29
2018-04-26T05:05:44.387Z,1020.29
2018-04-26T05:06:44.352Z,1020.34
2018-04-26T05:07:44.095Z,1020.3
2018-04-26T05:08:44.048Z,1020.31
2018-04-26T05:09:44.620Z,1020.27
2018-04-26T05:10:44.934Z,1020.32
2018-04-26T05:11:43.972Z,1020.3
2018-04-26T05:12:44.087Z,1020.27
2018-04-26T05:13:44.841Z,1020.3
2018-04-26T05:14:47.932Z,1020.27
2018-04-26T05:15:44.358Z,1020.24
2018-04-26T05:16:43.961Z,1020.28
2018-04-26T05:17:44.151Z,1020.33
2018-04-26T05:18:44.296Z,1020.34
2018-04-26T05:19:44.680Z,1020.34
2018-04-26T05:20:43.947Z,1020.35
2018-04-26T05:21:44.314Z,1020.43
2018-04-26T05:22:44.614Z,1020.43
2018-04-26T05:23:44.275Z,1020.39
2018-04-26T05:24:44.827Z,1020.46
2018-04-26T05:25:44.896Z,1020.43
2018-04-26T05:26:44.091Z,1020.44
2018-04-26T05:27:44.744Z,1020.46
2018-04-26T05:28:45.057Z,1020.51
2018-04-26T05:29:44.286Z,1020.47
2018-04-26T05:30:45.077Z,1020.52
2018-04-26T05:32:04.066Z,1020.41
2018-04-26T05:32:44.266Z,1020.49
2018-04-26T05:33:45.774Z,1020.5
2018-04-26T05:34:44.906Z,1020.51
2018-04-26T05:35:44.488Z,1020.5
2018-04-26T05:36:44.036Z,1020.51
2018-04-26T05:37:44.339Z,1020.55
2018-04-26T05:38:44.618Z,1020.56
2018-04-26T05:39:59.668Z,1020.53
2018-04-26T05:40:44.421Z,1020.57
2018-04-26T05:41:43.940Z,1020.58
2018-04-26T05:42:44.377Z,1020.6
2018-04-26T05:43:45.233Z,1020.61
2018-04-26T05:44:47.504Z,1020.64
2018-04-26T05:45:49.183Z,1020.71
2018-04-26T05:46:44.576Z,1020.69
2018-04-26T05:47:44.091Z,1020.74
2018-04-26T05:48:55.772Z,1020.7
2018-04-26T05:49:45.917Z,1020.69
2018-04-26T05:50:45.001Z,1020.73
2018-04-26T05:51:44.246Z,1020.73
2018-04-26T05:52:44.010Z,1020.73
2018-04-26T05:53:44.709Z,1020.7
2018-04-26T05:54:44.824Z,1020.74
2018-04-26T05:55:44.153Z,1020.73
2018-04-26T05:56:43.977Z,1020.77
2018-04-26T05:57:44.978Z,1020.78
2018-04-26T05:58:44.003Z,1020.79
2018-04-26T05:59:45.186Z,1020.81
2018-04-26T06:00:45.594Z,1020.81
2018-04-26T06:01:44.083Z,1020.78
2018-04-26T06:02:43.985Z,1020.82
2018-04-26T06:03:47.400Z,1020.86
2018-04-26T06:04:44.707Z,1020.93
2018-04-26T06:05:44.069Z,1020.92
2018-04-26T06:06:44.335Z,1020.88
2018-04-26T06:07:45.129Z,1020.92
2018-04-26T06:08:45.637Z,1020.91
2018-04-26T06:09:44.240Z,1020.87
2018-04-26T06:10:44.247Z,1020.87
2018-04-26T06:11:45.046Z,1020.91
2018-04-26T06:12:44.488Z,1020.88
2018-04-26T06:13:44.276Z,1020.91
2018-04-26T06:14:44.661Z,1020.92
2018-04-26T06:15:45.099Z,1020.94
2018-04-26T06:16:47.839Z,1020.97
2018-04-26T06:17:47.544Z,1020.92
2018-04-26T06:18:44.487Z,1020.95
2018-04-26T06:19:46.430Z,1021
2018-04-26T06:20:46.891Z,1020.97
2018-04-26T06:21:44.127Z,1020.98
2018-04-26T06:22:44.109Z,1020.96
2018-04-26T06:23:45.845Z,1020.94
2018-04-26T06:24:46.157Z,1020.93
2018-04-26T06:25:44.268Z,1020.97
2018-04-26T06:26:44.662Z,1021
2018-04-26T06:27:47.041Z,1020.97
2018-04-26T06:28:45.471Z,1021
2018-04-26T12:32:08.189Z,1021.1
2018-04-26T12:33:08.635Z,1021.11
2018-04-26T12:34:08.703Z,1021.07
2018-04-26T12:35:08.469Z,1021.15
2018-04-26T12:36:08.226Z,1021.07
2018-04-26T12:37:08.196Z,1021.09
2018-04-26T12:38:08.270Z,1021.12
2018-04-26T12:39:08.273Z,1021.23
2018-04-26T12:40:08.351Z,1021.1
2018-04-26T12:41:08.188Z,1021.13
2018-04-26T12:42:08.339Z,1021.14
2018-04-26T12:43:08.209Z,1021.16
2018-04-26T12:44:08.680Z,1021.15
2018-04-26T12:45:08.395Z,1021.11
2018-04-26T12:46:08.216Z,1021.07
2018-04-26T12:47:08.217Z,1021.06
2018-04-26T12:48:08.249Z,1021.11
2018-04-26T12:49:08.215Z,1021.1
2018-04-26T12:50:08.204Z,1021.06
2018-04-26T12:51:08.210Z,1021.07
2018-04-26T12:52:08.233Z,1021.21
2018-04-26T12:53:08.263Z,1021.14
2018-04-26T12:54:08.253Z,1021.13
2018-04-26T12:55:08.197Z,1021.11
2018-04-26T12:56:08.250Z,1021.13
2018-04-26T12:57:08.209Z,1021.17
2018-04-26T12:58:08.297Z,1021.16
2018-04-26T12:59:08.231Z,1021.14
2018-04-26T13:00:08.239Z,1021.02
2018-04-26T13:01:08.390Z,1021.04
2018-04-26T13:02:08.539Z,1021.08
2018-04-26T13:03:08.231Z,1021.03
2018-04-26T13:04:08.286Z,1021.06
2018-04-26T13:05:08.236Z,1021.07
2018-04-26T13:06:08.222Z,1021.13
2018-04-26T13:07:08.432Z,1021.1
2018-04-26T13:08:08.395Z,1021.14
2018-04-26T13:09:08.249Z,1021.15
2018-04-26T13:10:08.342Z,1021.13
2018-04-26T13:11:08.240Z,1021.11
2018-04-26T13:12:08.251Z,1021.11
2018-04-26T13:13:08.352Z,1021.13
2018-04-26T13:14:08.237Z,1021.18
2018-04-26T13:15:08.259Z,1021.11
2018-04-26T13:16:08.246Z,1021.19
2018-04-26T13:17:08.333Z,1021.11
2018-04-26T13:18:08.397Z,1021.16
2018-04-26T13:19:08.306Z,1021.1
2018-04-26T13:20:08.450Z,1021.05
2018-04-26T13:21:08.608Z,1021.05
2018-04-26T13:22:08.435Z,1021.01
2018-04-26T13:23:08.255Z,1021.03
2018-04-26T13:24:08.265Z,1021.05
2018-04-26T13:25:08.283Z,1020.95
2018-04-26T13:26:08.250Z,1020.95
2018-04-26T13:27:08.658Z,1020.95
2018-04-26T13:28:08.366Z,1021.02
2018-04-26T13:29:08.266Z,1020.96
2018-04-26T13:30:08.283Z,1020.9
2018-04-26T13:31:08.433Z,1020.91
2018-04-26T13:32:08.251Z,1020.89
2018-04-26T13:33:08.325Z,1020.87
2018-04-26T13:34:08.343Z,1020.92
2018-04-26T13:35:08.249Z,1020.91
2018-04-26T13:36:08.420Z,1020.93
2018-04-26T13:47:49.552Z,1021
2018-04-26T13:48:49.770Z,1021.03
2018-04-26T13:49:49.787Z,1021.07
2018-04-26T13:50:49.583Z,1021.03
2018-04-26T13:51:49.603Z,1021.01
2018-04-26T13:52:49.545Z,1020.92
2018-04-26T13:53:49.562Z,1020.89
2018-04-26T13:54:49.587Z,1020.88
2018-04-26T13:55:49.921Z,1020.9
2018-04-26T13:56:49.563Z,1020.87
2018-04-26T13:57:49.558Z,1020.83
2018-04-26T13:58:49.556Z,1020.91
2018-04-26T13:59:49.577Z,1020.87
2018-04-26T14:00:49.598Z,1020.84
2018-04-26T14:01:49.566Z,1020.89
2018-04-26T14:02:49.616Z,1020.89
2018-04-26T14:03:49.565Z,1020.91
2018-04-26T14:04:49.780Z,1020.92
2018-04-26T14:05:49.692Z,1020.9
2018-04-26T14:06:49.560Z,1020.89
2018-04-26T14:07:49.585Z,1020.88
2018-04-26T14:08:49.581Z,1020.9
2018-04-26T14:09:49.621Z,1020.88
2018-04-26T14:10:49.725Z,1020.84
2018-04-26T14:11:49.603Z,1020.84
2018-04-26T14:12:49.571Z,1020.83
2018-04-26T14:13:49.575Z,1020.93
2018-04-26T14:14:49.823Z,1020.87
2018-04-26T14:15:49.828Z,1020.88
2018-04-26T14:16:49.764Z,1020.83
2018-04-26T14:17:49.604Z,1020.86
2018-04-26T14:18:56.991Z,1020.88
2018-04-26T14:19:49.781Z,1020.88
2018-04-26T14:20:49.639Z,1020.96
2018-04-26T14:21:49.612Z,1020.9
2018-04-26T14:22:49.621Z,1020.92
2018-04-26T14:23:49.635Z,1020.97
2018-04-26T14:24:49.574Z,1020.91
2018-04-26T14:25:49.709Z,1020.91
2018-04-26T14:26:49.817Z,1020.87
2018-04-26T14:27:49.589Z,1020.91
2018-04-26T14:28:49.589Z,1020.9
2018-04-26T14:29:49.975Z,1020.87
2018-04-26T14:30:49.636Z,1020.82
2018-04-26T14:31:49.702Z,1020.84
2018-04-26T14:32:49.590Z,1020.82
2018-04-26T14:33:49.697Z,1020.84
2018-04-26T14:34:49.684Z,1020.77
2018-04-26T14:35:49.630Z,1020.73
2018-04-26T14:36:50.008Z,1020.69
2018-04-26T14:37:49.623Z,1020.66
2018-04-26T14:38:49.629Z,1020.68
2018-04-26T14:39:49.607Z,1020.64
2018-04-26T14:40:49.701Z,1020.7
2018-04-26T14:41:49.653Z,1020.65
2018-04-26T14:42:49.582Z,1020.67
2018-04-26T14:43:49.604Z,1020.65
2018-04-26T14:44:49.617Z,1020.71
2018-04-26T14:45:49.911Z,1020.67
2018-04-26T14:46:49.615Z,1020.67
2018-04-26T14:47:49.598Z,1020.69
2018-04-26T14:48:49.654Z,1020.68
2018-04-26T14:49:49.941Z,1020.73
2018-04-26T14:50:49.617Z,1020.66
2018-04-26T14:51:49.633Z,1020.67
2018-04-26T14:52:49.613Z,1020.66
2018-04-26T14:53:49.713Z,1020.69
2018-04-26T14:54:49.917Z,1020.64
2018-04-26T14:55:49.618Z,1020.7
2018-04-26T14:56:49.787Z,1020.72
2018-04-26T14:57:49.617Z,1020.73
2018-04-26T14:58:49.739Z,1020.72
2018-04-26T14:59:49.957Z,1020.68
2018-04-26T15:00:49.669Z,1020.68
2018-04-26T15:01:49.664Z,1020.67
2018-04-26T15:02:49.719Z,1020.65
2018-04-26T15:03:49.611Z,1020.69
2018-04-26T15:04:50.015Z,1020.63
2018-04-26T15:05:49.653Z,1020.59
2018-04-26T15:06:49.659Z,1020.59
2018-04-26T15:07:49.711Z,1020.59
2018-04-26T15:08:49.616Z,1020.54
2018-04-26T15:09:49.723Z,1020.56
2018-04-26T15:10:49.683Z,1020.5
2018-04-26T15:11:49.649Z,1020.49
2018-04-26T15:12:49.674Z,1020.42
2018-04-26T15:13:49.641Z,1020.4
2018-04-26T15:14:49.640Z,1020.39
2018-04-26T15:15:49.608Z,1020.36
2018-04-26T15:16:49.873Z,1020.35
2018-04-26T15:17:49.613Z,1020.37
2018-04-26T15:18:49.701Z,1020.37
2018-04-26T15:19:49.816Z,1020.35
2018-04-26T15:20:49.731Z,1020.42
2018-04-26T15:21:49.699Z,1020.4
2018-04-26T15:22:49.646Z,1020.42
2018-04-26T15:23:49.727Z,1020.37
2018-04-26T15:24:49.947Z,1020.36
2018-04-26T15:25:49.639Z,1020.3
2018-04-26T15:26:49.926Z,1020.32
2018-04-26T15:27:49.633Z,1020.33
2018-04-26T15:28:49.665Z,1020.31
2018-04-26T15:29:49.993Z,1020.29
2018-04-26T15:30:49.763Z,1020.3
2018-04-26T15:31:49.952Z,1020.28
2018-04-26T15:32:49.726Z,1020.25
2018-04-26T15:33:49.917Z,1020.24
2018-04-26T15:34:49.686Z,1020.26
2018-04-26T15:35:50.506Z,1020.27
2018-04-26T15:36:49.688Z,1020.27
2018-04-26T15:37:49.640Z,1020.26
2018-04-26T15:38:49.818Z,1020.35
2018-04-26T15:39:49.631Z,1020.32
2018-04-26T15:40:49.666Z,1020.32
2018-04-26T15:41:49.801Z,1020.33
2018-04-26T15:42:49.723Z,1020.33
2018-04-26T15:43:49.650Z,1020.31
2018-04-26T15:44:49.659Z,1020.29
2018-04-26T15:45:50.183Z,1020.26
2018-04-26T15:46:49.974Z,1020.21
2018-04-26T15:47:49.733Z,1020.21
2018-04-26T15:48:49.666Z,1020.2
2018-04-26T15:49:49.798Z,1020.21
2018-04-26T15:50:49.651Z,1020.26
2018-04-26T15:51:50.036Z,1020.25
2018-04-26T15:52:49.734Z,1020.28
2018-04-26T15:53:49.714Z,1020.27
2018-04-26T15:54:49.708Z,1020.27
2018-04-26T15:55:49.655Z,1020.23
2018-04-26T15:56:49.647Z,1020.26
2018-04-26T15:57:49.670Z,1020.28
2018-04-26T15:58:49.663Z,1020.26
2018-04-26T15:59:49.612Z,1020.21
2018-04-26T16:00:49.651Z,1020.23
2018-04-26T16:01:50.108Z,1020.21
2018-04-26T16:02:50.077Z,1020.15
2018-04-26T16:03:49.673Z,1020.15
2018-04-26T16:04:49.761Z,1020.16
2018-04-26T16:05:49.899Z,1020.2
2018-04-26T16:06:49.802Z,1020.18
2018-04-26T16:07:49.670Z,1020.2
2018-04-26T16:08:49.774Z,1020.19
2018-04-26T16:09:49.631Z,1020.16
2018-04-26T16:10:49.705Z,1020.17
2018-04-26T16:11:49.735Z,1020.16
2018-04-26T16:12:50.548Z,1020.2
2018-04-26T16:13:50.005Z,1020.22
2018-04-26T16:14:49.759Z,1020.27
2018-04-26T16:15:49.640Z,1020.22
2018-04-26T16:16:49.782Z,1020.24
2018-04-26T16:17:50.076Z,1020.2
2018-04-26T16:18:49.684Z,1020.16
2018-04-26T16:19:49.891Z,1020.12
2018-04-26T16:20:49.766Z,1020.14
2018-04-26T16:21:49.801Z,1020.13
2018-04-26T16:22:49.650Z,1020.16
2018-04-26T16:23:50.088Z,1020.14
2018-04-26T16:24:50.045Z,1020.14
2018-04-26T16:25:49.732Z,1020.19
2018-04-26T16:26:49.674Z,1020.19
2018-04-26T16:27:49.806Z,1020.19
2018-04-26T16:28:49.698Z,1020.21
2018-04-26T16:29:49.667Z,1020.18
2018-04-26T16:30:49.968Z,1020.2
2018-04-26T16:31:49.979Z,1020.22
2018-04-26T16:32:50.125Z,1020.2
2018-04-26T16:33:50.093Z,1020.16
2018-04-26T16:34:49.798Z,1020.21
2018-04-26T16:35:49.764Z,1020.18
2018-04-26T16:36:49.841Z,1020.22
2018-04-26T16:37:49.681Z,1020.16
2018-04-26T16:38:50.227Z,1020.17
2018-04-26T16:39:49.745Z,1020.15
2018-04-26T16:40:49.688Z,1020.12
2018-04-26T16:41:49.720Z,1020.12
2018-04-26T16:42:49.976Z,1020.12
2018-04-26T16:43:50.120Z,1020.14
2018-04-26T16:44:49.734Z,1020.12
2018-04-26T16:45:49.696Z,1020.18
2018-04-26T16:46:49.739Z,1020.18
2018-04-26T16:47:49.744Z,1020.19
2018-04-26T16:48:49.686Z,1020.18
2018-04-26T16:49:49.894Z,1020.19
2018-04-26T16:50:49.894Z,1020.21
2018-04-26T16:51:49.774Z,1020.2
2018-04-26T16:52:49.690Z,1020.22
2018-04-26T16:53:49.730Z,1020.19
2018-04-26T16:54:49.792Z,1020.16
2018-04-26T16:55:50.254Z,1020.11
2018-04-26T16:56:49.803Z,1020.1
2018-04-26T16:57:49.730Z,1020.07
2018-04-26T16:58:49.786Z,1020.03
2018-04-26T16:59:50.137Z,1020.07
2018-04-26T17:00:49.870Z,1020.11
2018-04-26T17:01:49.842Z,1020.13
2018-04-26T17:02:50.091Z,1020.18
2018-04-26T17:03:49.804Z,1020.14
2018-04-26T17:04:50.442Z,1020.19
2018-04-26T17:05:50.111Z,1020.14
2018-04-26T17:06:49.744Z,1020.18
2018-04-26T17:07:49.746Z,1020.16
2018-04-26T17:08:49.704Z,1020.14
2018-04-26T17:09:49.749Z,1020.13
2018-04-26T17:10:49.774Z,1020.13
2018-04-26T17:11:50.173Z,1020.12
2018-04-26T17:12:49.730Z,1020.15
2018-04-26T17:13:50.258Z,1020.15
2018-04-26T17:14:49.747Z,1020.19
2018-04-26T17:15:50.283Z,1020.21
2018-04-26T17:16:50.291Z,1020.23
2018-04-26T17:17:49.695Z,1020.23
2018-04-26T17:18:50.091Z,1020.22
2018-04-26T17:19:49.744Z,1020.2
2018-04-26T17:20:49.951Z,1020.23
2018-04-26T17:21:52.728Z,1020.27
2018-04-26T17:22:49.851Z,1020.22
2018-04-26T17:23:49.768Z,1020.28
2018-04-26T17:24:50.037Z,1020.28
2018-04-26T17:25:50.249Z,1020.28
2018-04-26T17:26:49.929Z,1020.3
2018-04-26T17:27:49.974Z,1020.36
2018-04-26T17:28:49.746Z,1020.38
2018-04-26T17:29:50.036Z,1020.42
2018-04-26T17:30:50.283Z,1020.4
2018-04-26T17:31:49.813Z,1020.4
2018-04-26T17:32:49.767Z,1020.4
2018-04-26T17:33:49.695Z,1020.35
2018-04-26T17:34:50.494Z,1020.38
2018-04-26T17:35:49.956Z,1020.34
2018-04-26T17:36:49.806Z,1020.33
2018-04-26T17:40:15.298Z,1020.32
2018-04-26T17:41:15.017Z,1020.35
2018-04-26T17:42:15.305Z,1020.38
2018-04-26T17:43:15.175Z,1020.35
2018-04-26T17:44:14.968Z,1020.31
2018-04-26T17:45:14.982Z,1020.27
2018-04-26T17:46:15.671Z,1020.26
2018-04-26T17:47:15.271Z,1020.25
2018-04-26T17:48:16.234Z,1020.27
2018-04-26T17:49:15.132Z,1020.3
2018-04-26T17:50:14.970Z,1020.23
2018-04-26T17:51:15.159Z,1020.27
2018-04-26T17:52:15.307Z,1020.32
2018-04-26T17:53:15.034Z,1020.29
2018-04-26T17:54:15.037Z,1020.28
2018-04-26T17:55:14.958Z,1020.25
2018-04-26T17:56:15.096Z,1020.26
2018-04-26T17:57:15.133Z,1020.3
2018-04-26T17:58:15.233Z,1020.32
2018-04-26T17:59:14.956Z,1020.32
2018-04-26T18:00:15.371Z,1020.29
2018-04-26T18:01:15.289Z,1020.28
2018-04-26T18:02:15.217Z,1020.31
2018-04-26T18:03:14.984Z,1020.24
2018-04-26T18:04:14.939Z,1020.32
2018-04-26T18:05:15.005Z,1020.28
2018-04-26T18:06:15.185Z,1020.33
2018-04-26T18:07:15.133Z,1020.29
2018-04-26T18:08:15.105Z,1020.29
2018-04-26T18:09:15.212Z,1020.27
2018-04-26T18:10:14.952Z,1020.31
2018-04-26T18:11:15.261Z,1020.28
2018-04-26T18:12:15.132Z,1020.29
2018-04-26T18:13:15.060Z,1020.32
2018-04-26T18:14:15.313Z,1020.29
2018-04-26T18:15:15.774Z,1020.27
2018-04-26T18:16:15.068Z,1020.28
2018-04-26T18:17:14.966Z,1020.28
2018-04-26T18:18:15.240Z,1020.28
2018-04-26T18:19:15.063Z,1020.27
2018-04-26T18:20:16.543Z,1020.3
2018-04-26T18:21:15.297Z,1020.29
2018-04-26T18:22:15.024Z,1020.28
2018-04-26T18:23:15.312Z,1020.3
2018-04-26T18:24:14.976Z,1020.29